Time;durP1;ratioP1;P1;durP2;ratioP2;P2;SDS_P1;SDS_P2;PMS_P1;PMS_P2;Temp;Humidity;BMP_temperature;BMP_pressure;BME280_temperature;BME280_humidity;BME280_pressure;Samples;Min_cycle;Max_cycle;Signal;HPM_P1;HPM_P2
2022/09/04 00:00:07;;;;;;;5.13;2.67;;;;;;;15.49;54.69;100904.59;5028517;28;20216;-83
2022/09/04 00:02:48;;;;;;;4.20;2.47;;;;;;;15.41;55.24;100905.19;5028366;28;20257;-83
2022/09/04 00:05:20;;;;;;;2.47;2.10;;;;;;;15.34;55.68;100911.19;5038584;28;20684;-83
2022/09/04 00:07:59;;;;;;;3.57;2.13;;;;;;;15.25;55.90;100913.59;5035697;28;20226;-83
2022/09/04 00:10:33;;;;;;;2.20;1.80;;;;;;;15.20;56.35;100910.44;5027375;28;20213;-82
2022/09/04 00:13:06;;;;;;;2.20;2.00;;;;;;;15.17;56.33;100912.50;5029197;28;20250;-82
2022/09/04 00:15:36;;;;;;;3.13;2.00;;;;;;;15.16;56.21;100913.47;5036969;28;20202;-83
2022/09/04 00:18:08;;;;;;;3.27;2.13;;;;;;;15.16;56.36;100913.47;5031167;28;20615;-83
2022/09/04 00:20:40;;;;;;;3.33;2.13;;;;;;;15.15;56.67;100914.44;5034619;28;20874;-83
2022/09/04 00:23:18;;;;;;;2.93;2.10;;;;;;;15.14;56.32;100913.59;5027352;28;20195;-83
2022/09/04 00:25:56;;;;;;;3.40;1.90;;;;;;;15.14;56.02;100916.28;5036705;28;20206;-83
2022/09/04 00:28:32;;;;;;;2.67;1.90;;;;;;;15.12;56.05;100912.84;5028612;28;20210;-82
2022/09/04 00:31:06;;;;;;;7.93;3.00;;;;;;;15.05;56.03;100911.59;5029558;28;20211;-83
2022/09/04 00:33:43;;;;;;;3.67;2.27;;;;;;;14.97;56.33;100906.00;5025197;28;20236;-83
2022/09/04 00:36:11;;;;;;;2.90;2.03;;;;;;;14.93;56.76;100907.22;5031761;28;20227;-83
2022/09/04 00:38:43;;;;;;;4.07;2.37;;;;;;;14.89;57.13;100911.09;5032189;28;20209;-83
2022/09/04 00:41:23;;;;;;;3.57;2.10;;;;;;;14.85;57.06;100910.50;5027287;28;20213;-83
2022/09/04 00:44:03;;;;;;;4.47;2.07;;;;;;;14.86;57.14;100917.56;5034126;28;20569;-83
2022/09/04 00:47:05;;;;;;;3.60;2.20;;;;;;;14.84;57.45;100910.63;5034760;28;20236;-83
2022/09/04 00:49:48;;;;;;;4.00;2.10;;;;;;;14.83;57.54;100909.75;5032952;28;21073;-83
2022/09/04 00:52:28;;;;;;;4.40;2.10;;;;;;;14.81;57.66;100908.16;5031294;28;20210;-82
2022/09/04 00:55:09;;;;;;;4.50;2.50;;;;;;;14.77;57.70;100912.03;5031621;28;20212;-83
2022/09/04 00:58:00;;;;;;;3.17;2.30;;;;;;;14.70;57.56;100903.59;5026596;28;20308;-83
2022/09/04 01:00:29;;;;;;;3.73;2.37;;;;;;;14.66;58.32;100910.19;5027238;28;20206;-82
2022/09/04 01:03:24;;;;;;;5.00;2.63;;;;;;;14.61;58.11;100911.50;5036894;28;20325;-83
2022/09/04 01:06:08;;;;;;;3.73;2.30;;;;;;;14.57;58.32;100919.78;5028863;28;20755;-83
2022/09/04 01:08:46;;;;;;;5.03;2.27;;;;;;;14.55;58.13;100916.34;5024310;28;20574;-83
2022/09/04 01:11:26;;;;;;;2.80;2.37;;;;;;;14.54;58.20;100908.44;5028034;28;20227;-83
2022/09/04 01:14:12;;;;;;;3.90;2.53;;;;;;;14.53;58.63;100918.28;5021954;28;20206;-83
2022/09/04 01:16:46;;;;;;;4.53;2.50;;;;;;;14.53;58.63;100914.75;5023321;28;20222;-82
2022/09/04 01:19:28;;;;;;;3.10;2.33;;;;;;;14.52;58.66;100913.03;5031633;28;20242;-83
2022/09/04 01:22:12;;;;;;;2.50;2.30;;;;;;;14.50;58.24;100912.34;5032522;28;20198;-82
2022/09/04 01:24:59;;;;;;;5.40;2.60;;;;;;;14.50;58.78;100913.19;5027543;28;20211;-82
2022/09/04 01:27:32;;;;;;;4.47;2.30;;;;;;;14.48;58.46;100912.44;5032884;28;20708;-82
2022/09/04 01:30:06;;;;;;;4.47;2.30;;;;;;;14.47;58.38;100913.41;5026511;28;20198;-82
2022/09/04 01:32:45;;;;;;;3.77;2.30;;;;;;;14.46;58.83;100914.38;5026198;28;20267;-82
2022/09/04 01:35:21;;;;;;;4.20;2.40;;;;;;;14.44;58.54;100916.31;5028166;28;20201;-82
2022/09/04 01:37:57;;;;;;;4.57;2.60;;;;;;;14.42;59.00;100918.25;5021634;28;20705;-83
2022/09/04 01:40:34;;;;;;;6.20;2.47;;;;;;;14.43;59.21;100919.13;5033775;28;20201;-82
2022/09/04 01:43:06;;;;;;;3.20;2.33;;;;;;;14.42;59.13;100930.81;5024743;28;20715;-83
2022/09/04 01:45:46;;;;;;;5.73;2.60;;;;;;;14.40;58.95;100936.28;5026436;28;20206;-83
2022/09/04 01:48:17;;;;;;;3.00;2.30;;;;;;;14.40;58.89;100935.38;5028198;28;20221;-83
2022/09/04 01:50:50;;;;;;;2.80;2.23;;;;;;;14.40;58.71;100943.41;5031390;28;20332;-83
2022/09/04 01:53:23;;;;;;;4.30;2.50;;;;;;;14.39;59.17;100939.03;5019492;28;20233;-82
2022/09/04 01:55:59;;;;;;;2.87;2.30;;;;;;;14.37;58.88;100943.66;5030208;28;20317;-82
2022/09/04 01:58:37;;;;;;;5.23;2.73;;;;;;;14.36;59.10;100949.97;5017888;28;20202;-83
2022/09/04 02:01:13;;;;;;;4.23;2.70;;;;;;;14.35;58.99;100945.59;5028971;28;20203;-83
2022/09/04 02:03:47;;;;;;;2.27;2.07;;;;;;;14.33;59.21;100945.69;5026261;28;20208;-83
2022/09/04 02:06:26;;;;;;;4.00;2.60;;;;;;;14.30;59.24;100945.94;5024881;28;20217;-83
2022/09/04 02:09:10;;;;;;;3.23;2.67;;;;;;;14.24;59.13;100939.22;5029873;28;20661;-82
2022/09/04 02:11:39;;;;;;;5.50;2.50;;;;;;;14.19;59.79;100948.53;5031906;28;20692;-82
2022/09/04 02:14:23;;;;;;;5.90;2.70;;;;;;;14.12;59.31;100942.81;5025927;28;20227;-82
2022/09/04 02:17:01;;;;;;;3.90;2.57;;;;;;;14.08;59.65;100953.84;5029705;28;20260;-83
2022/09/04 02:19:37;;;;;;;3.07;2.43;;;;;;;14.02;59.96;100946.25;5025955;28;20209;-83
2022/09/04 02:22:15;;;;;;;4.20;2.60;;;;;;;13.95;59.85;100945.84;5031554;28;20202;-83
2022/09/04 02:24:49;;;;;;;4.63;2.60;;;;;;;13.87;60.01;100946.41;5029955;28;20205;-83
2022/09/04 02:27:27;;;;;;;3.80;3.27;;;;;;;13.81;60.56;100949.50;5034556;28;20312;-84
2022/09/04 02:30:02;;;;;;;5.50;2.53;;;;;;;13.74;60.45;100945.59;5033780;28;20198;-84
2022/09/04 02:32:36;;;;;;;3.47;2.70;;;;;;;13.70;60.80;100945.91;5032615;28;20201;-83
2022/09/04 02:35:12;;;;;;;3.30;2.70;;;;;;;13.65;61.14;100951.56;5034088;28;20268;-83
2022/09/04 02:37:55;;;;;;;3.77;2.70;;;;;;;13.61;61.26;100952.78;5034987;28;20226;-83
2022/09/04 02:40:42;;;;;;;3.03;2.53;;;;;;;13.57;61.80;100945.94;5027465;28;20582;-83
2022/09/04 02:43:30;;;;;;;5.47;3.10;;;;;;;13.51;61.49;100943.69;5032703;28;20229;-84
2022/09/04 02:46:05;;;;;;;4.97;2.70;;;;;;;13.44;61.93;100951.28;5034191;28;20237;-84
2022/09/04 02:48:43;;;;;;;3.73;2.93;;;;;;;13.39;61.82;100955.25;5028397;28;20218;-83
2022/09/04 02:51:23;;;;;;;6.17;3.13;;;;;;;13.33;62.08;100948.50;5030160;28;21030;-84
2022/09/04 02:54:00;;;;;;;5.93;2.60;;;;;;;13.29;62.37;100957.69;5027661;28;20226;-83
2022/09/04 02:56:38;;;;;;;4.50;2.70;;;;;;;13.27;62.65;100954.28;5030275;28;20226;-84
2022/09/04 02:59:24;;;;;;;3.70;3.00;;;;;;;13.27;62.82;100953.41;5033847;28;20266;-84
2022/09/04 03:01:56;;;;;;;4.83;2.97;;;;;;;13.26;63.08;100955.22;5029411;28;20859;-83
2022/09/04 03:04:30;;;;;;;4.47;2.73;;;;;;;13.26;62.95;100949.03;5026588;28;20229;-83
2022/09/04 03:07:06;;;;;;;4.27;3.13;;;;;;;13.22;63.16;100943.06;5031932;28;20566;-83
2022/09/04 03:09:39;;;;;;;3.70;2.60;;;;;;;13.18;63.14;100949.56;5031099;28;20209;-83
2022/09/04 03:12:25;;;;;;;2.83;2.33;;;;;;;13.14;63.36;100948.03;5035008;28;20214;-83
2022/09/04 03:14:58;;;;;;;3.37;2.67;;;;;;;13.12;63.44;100952.63;5034257;28;20716;-83
2022/09/04 03:17:33;;;;;;;3.53;2.77;;;;;;;13.09;63.49;100951.03;5034788;28;20413;-83
2022/09/04 03:20:05;;;;;;;4.47;2.73;;;;;;;13.08;63.70;100951.97;5038909;28;20217;-83
2022/09/04 03:22:39;;;;;;;4.70;2.70;;;;;;;13.05;63.54;100960.25;5037322;28;20294;-83
2022/09/04 03:25:24;;;;;;;4.63;3.30;;;;;;;13.03;64.07;100967.50;5035650;28;20205;-83
2022/09/04 03:27:51;;;;;;;3.37;2.90;;;;;;;13.02;64.48;100970.28;5037758;28;20226;-84
2022/09/04 03:30:18;;;;;;;4.83;3.40;;;;;;;13.02;64.30;100964.94;5035951;28;20206;-83
2022/09/04 03:32:53;;;;;;;3.87;3.10;;;;;;;13.01;64.24;100966.75;5028825;28;20212;-83
2022/09/04 03:35:31;;;;;;;3.93;2.73;;;;;;;13.02;64.31;100967.63;5032013;28;20212;-83
2022/09/04 03:38:10;;;;;;;3.70;2.60;;;;;;;13.01;64.61;100968.56;5036097;28;20210;-84
2022/09/04 03:40:41;;;;;;;3.43;2.83;;;;;;;13.01;64.57;100974.78;5036333;28;20214;-84
2022/09/04 03:43:45;;;;;;;4.47;2.70;;;;;;;12.95;63.95;100983.19;5037235;28;20202;-83
2022/09/04 03:46:32;;;;;;;3.10;2.80;;;;;;;12.89;63.38;100986.31;5021930;28;20232;-84
2022/09/04 03:49:12;;;;;;;3.57;2.93;;;;;;;12.83;63.78;100992.06;5029147;28;20214;-84
2022/09/04 03:51:49;;;;;;;4.33;3.00;;;;;;;12.76;63.58;100996.09;5037607;28;20214;-84
2022/09/04 03:54:33;;;;;;;5.47;3.27;;;;;;;12.67;63.60;101002.06;5034697;28;20276;-83
2022/09/04 03:57:11;;;;;;;3.53;3.20;;;;;;;12.59;63.57;100999.03;5029092;28;20810;-83
2022/09/04 03:59:53;;;;;;;5.43;3.30;;;;;;;12.54;64.01;100993.16;5030001;28;20248;-83
2022/09/04 04:02:30;;;;;;;3.90;2.90;;;;;;;12.49;64.70;100994.31;5035675;28;20527;-84
2022/09/04 04:05:14;;;;;;;3.07;2.77;;;;;;;12.47;64.82;100988.22;5027539;28;20213;-83
2022/09/04 04:07:53;;;;;;;5.03;3.30;;;;;;;12.45;65.30;100992.78;5022902;28;20226;-83
2022/09/04 04:10:32;;;;;;;3.30;2.80;;;;;;;12.43;64.97;100992.03;5036475;28;20208;-83
2022/09/04 04:13:30;;;;;;;3.03;2.73;;;;;;;12.35;64.57;100996.19;5036704;28;20201;-81
2022/09/04 04:16:08;;;;;;;2.93;2.53;;;;;;;12.23;64.28;101008.50;5026550;28;20588;-84
2022/09/04 04:18:48;;;;;;;3.23;2.70;;;;;;;12.15;65.14;101005.47;5035709;28;20203;-83
2022/09/04 04:21:26;;;;;;;4.37;2.83;;;;;;;12.10;65.40;101011.09;5026128;28;20202;-84
2022/09/04 04:24:30;;;;;;;4.13;3.10;;;;;;;12.06;65.65;101017.59;5032141;28;20259;-84
2022/09/04 04:27:09;;;;;;;3.03;2.73;;;;;;;12.05;66.03;101015.00;5022225;28;20240;-83
2022/09/04 04:29:54;;;;;;;3.97;3.17;;;;;;;12.05;66.42;101017.69;5033294;28;20235;-83
2022/09/04 04:32:38;;;;;;;3.97;2.80;;;;;;;12.06;66.84;101022.06;5031336;28;20215;-83
2022/09/04 04:35:15;;;;;;;3.30;3.00;;;;;;;12.07;67.25;101021.97;5032500;28;20217;-83
2022/09/04 04:38:08;;;;;;;4.27;3.40;;;;;;;12.09;67.21;101027.22;5030901;28;20227;-83
2022/09/04 04:40:58;;;;;;;4.23;3.43;;;;;;;12.12;67.43;101032.38;5025585;28;20207;-83
2022/09/04 04:43:36;;;;;;;4.87;3.07;;;;;;;12.10;67.51;101035.13;5029940;28;20284;-84
2022/09/04 04:46:10;;;;;;;6.33;3.40;;;;;;;12.06;67.37;101033.59;5030778;28;20255;-84
2022/09/04 04:49:12;;;;;;;5.37;3.60;;;;;;;11.96;66.78;101039.63;5023765;28;20214;-83
2022/09/04 04:51:53;;;;;;;4.33;3.00;;;;;;;11.83;66.27;101042.19;5031986;28;20205;-83
2022/09/04 04:54:42;;;;;;;4.53;3.37;;;;;;;11.69;66.69;101040.34;5035205;28;20311;-84
2022/09/04 04:57:20;;;;;;;5.93;3.87;;;;;;;11.65;67.39;101045.97;5033971;28;20226;-84
2022/09/04 04:59:54;;;;;;;5.47;3.63;;;;;;;11.64;68.24;101049.59;5030107;28;20194;-84
2022/09/04 05:02:29;;;;;;;4.67;3.97;;;;;;;11.64;68.78;101057.63;5029381;28;20281;-84
2022/09/04 05:05:02;;;;;;;5.77;3.60;;;;;;;11.66;69.13;101053.88;5024751;28;20195;-84
2022/09/04 05:07:36;;;;;;;6.37;4.53;;;;;;;11.69;69.62;101059.03;5027169;28;20231;-83
2022/09/04 05:10:13;;;;;;;4.80;4.40;;;;;;;11.74;69.82;101058.75;5027857;28;20208;-84
2022/09/04 05:12:55;;;;;;;3.87;3.57;;;;;;;11.76;69.94;101056.88;5025894;28;20206;-84
2022/09/04 05:15:28;;;;;;;6.10;4.40;;;;;;;11.77;70.08;101062.13;5024518;28;20239;-84
2022/09/04 05:18:03;;;;;;;6.10;3.57;;;;;;;11.78;70.19;101058.50;5021534;28;20231;-83
2022/09/04 05:20:39;;;;;;;8.90;4.30;;;;;;;11.80;70.57;101069.94;5028399;28;20206;-83
2022/09/04 05:23:18;;;;;;;6.13;3.73;;;;;;;11.81;70.64;101071.66;5030841;28;20671;-83
2022/09/04 05:25:53;;;;;;;7.13;4.17;;;;;;;11.85;71.04;101060.78;5025039;28;20210;-83
2022/09/04 05:28:28;;;;;;;5.20;4.00;;;;;;;11.88;71.08;101069.47;5030790;28;20203;-83
2022/09/04 05:31:04;;;;;;;5.13;3.80;;;;;;;11.93;71.20;101074.50;5021722;28;20211;-83
2022/09/04 05:33:37;;;;;;;5.63;4.03;;;;;;;11.97;71.36;101082.25;5029459;28;20216;-83
2022/09/04 05:36:13;;;;;;;4.47;4.07;;;;;;;12.02;71.31;101085.47;5031242;28;20313;-83
2022/09/04 05:38:50;;;;;;;5.67;3.50;;;;;;;12.08;71.40;101090.44;5029889;28;20213;-83
2022/09/04 05:41:33;;;;;;;4.70;3.93;;;;;;;12.14;71.38;101095.41;5021037;28;20203;-83
2022/09/04 05:44:14;;;;;;;5.97;4.13;;;;;;;12.22;71.47;101099.38;5035308;28;20194;-83
2022/09/04 05:46:52;;;;;;;6.73;4.03;;;;;;;12.30;71.66;101100.63;5033376;28;20228;-83
2022/09/04 05:49:38;;;;;;;5.20;4.43;;;;;;;12.36;71.70;101102.88;5034208;28;20686;-84
2022/09/04 05:52:20;;;;;;;5.20;4.10;;;;;;;12.43;71.76;101104.22;5027571;28;20557;-84
2022/09/04 05:55:24;;;;;;;5.43;3.93;;;;;;;12.51;71.61;101107.28;5030308;28;20214;-84
2022/09/04 05:58:10;;;;;;;5.87;4.00;;;;;;;12.60;71.55;101107.63;5032039;28;20234;-84
2022/09/04 06:00:48;;;;;;;4.87;3.83;;;;;;;12.67;71.45;101103.63;5026426;28;20247;-85
2022/09/04 06:03:35;;;;;;;4.57;3.93;;;;;;;12.74;71.22;101111.13;5025404;28;20214;-85
2022/09/04 06:06:11;;;;;;;5.40;4.47;;;;;;;12.82;70.97;101115.97;5031324;28;20263;-84
2022/09/04 06:09:01;;;;;;;4.60;3.50;;;;;;;12.90;70.62;101110.97;5036635;28;20225;-84
2022/09/04 06:11:50;;;;;;;5.17;3.80;;;;;;;12.96;70.34;101107.91;5035387;28;20266;-84
2022/09/04 06:14:38;;;;;;;4.60;3.70;;;;;;;13.07;70.69;101115.22;5027046;28;20238;-84
2022/09/04 06:17:31;;;;;;;6.10;4.30;;;;;;;13.19;70.46;101115.28;5026553;28;20275;-84
2022/09/04 06:20:18;;;;;;;6.30;3.70;;;;;;;13.30;70.39;101114.56;5032803;28;20305;-85
2022/09/04 06:23:00;;;;;;;4.47;3.53;;;;;;;13.41;70.38;101120.06;5032096;28;20211;-83
2022/09/04 06:26:02;;;;;;;5.43;4.03;;;;;;;13.53;70.13;101118.38;5037793;28;20202;-86
2022/09/04 06:28:55;;;;;;;6.37;4.17;;;;;;;13.67;69.63;101125.44;4982881;28;20680;-85
2022/09/04 06:31:57;;;;;;;4.80;3.63;;;;;;;13.82;69.54;101133.28;5025634;28;20591;-83
2022/09/04 06:34:44;;;;;;;4.17;3.60;;;;;;;13.97;69.20;101135.88;5034867;28;20218;-84
2022/09/04 06:37:19;;;;;;;5.20;4.13;;;;;;;14.11;68.71;101135.75;5031678;28;20230;-85
2022/09/04 06:39:59;;;;;;;4.40;3.80;;;;;;;14.23;68.44;101140.25;5034403;28;20297;-84
2022/09/04 06:42:36;;;;;;;4.53;3.47;;;;;;;14.36;67.69;101145.56;5033130;28;20224;-85
2022/09/04 06:45:17;;;;;;;4.30;3.87;;;;;;;14.46;67.58;101142.19;5035263;28;20205;-84
2022/09/04 06:48:02;;;;;;;5.13;3.53;;;;;;;14.58;67.12;101138.59;5040065;28;20230;-83
2022/09/04 06:50:34;;;;;;;8.17;3.90;;;;;;;14.69;66.92;101143.19;5040727;28;20248;-83
2022/09/04 06:53:17;;;;;;;5.67;3.97;;;;;;;14.79;66.57;101138.03;5036867;28;20292;-84
2022/09/04 06:55:52;;;;;;;4.10;3.70;;;;;;;14.93;66.29;101141.41;5030798;28;20742;-84
2022/09/04 06:58:43;;;;;;;5.23;3.63;;;;;;;15.08;66.14;101141.22;5033663;28;20230;-84
2022/09/04 07:01:15;;;;;;;4.87;4.37;;;;;;;15.23;66.32;101143.63;5030100;28;20201;-84
2022/09/04 07:03:55;;;;;;;11.33;4.47;;;;;;;15.38;65.47;101149.69;5036321;28;20206;-84
2022/09/04 07:06:29;;;;;;;6.83;3.67;;;;;;;15.53;65.55;101150.34;5033291;28;20238;-82
2022/09/04 07:09:05;;;;;;;4.80;3.67;;;;;;;15.68;64.92;101154.56;5029671;28;20707;-82
2022/09/04 07:12:02;;;;;;;4.97;3.73;;;;;;;15.83;64.45;101144.47;5029337;28;20217;-83
2022/09/04 07:14:45;;;;;;;5.93;3.40;;;;;;;15.98;64.04;101143.28;5029531;28;20767;-82
2022/09/04 07:17:23;;;;;;;6.33;3.87;;;;;;;16.13;63.58;101141.22;5019706;28;20592;-83
2022/09/04 07:20:15;;;;;;;4.30;3.90;;;;;;;16.29;63.17;101147.97;5024800;28;20210;-82
2022/09/04 07:23:05;;;;;;;3.53;3.23;;;;;;;16.47;62.95;101145.66;5019401;28;20583;-82
2022/09/04 07:25:43;;;;;;;5.20;3.50;;;;;;;16.63;62.94;101156.06;5035603;28;20205;-83
2022/09/04 07:28:29;;;;;;;5.03;3.70;;;;;;;16.77;61.68;101146.88;5037903;28;20201;-82
2022/09/04 07:31:02;;;;;;;5.63;4.07;;;;;;;16.86;61.15;101146.94;5035370;28;20291;-82
2022/09/04 07:33:36;;;;;;;6.30;3.73;;;;;;;17.00;61.16;101148.53;5039088;28;20193;-82
2022/09/04 07:36:13;;;;;;;4.87;3.57;;;;;;;17.13;60.92;101145.69;5039347;28;20232;-82
2022/09/04 07:38:48;;;;;;;4.50;3.73;;;;;;;17.23;60.39;101150.16;5039437;28;20714;-82
2022/09/04 07:41:24;;;;;;;5.57;3.93;;;;;;;17.38;60.01;101145.31;5039664;28;20200;-82
2022/09/04 07:44:02;;;;;;;6.83;3.80;;;;;;;17.53;59.53;101145.88;5040412;28;20201;-80
2022/09/04 07:46:35;;;;;;;4.83;3.77;;;;;;;17.63;58.97;101141.41;5039802;28;20269;-80
2022/09/04 07:49:09;;;;;;;4.77;3.87;;;;;;;17.75;58.92;101137.69;5039586;28;20583;-80
2022/09/04 07:51:42;;;;;;;5.20;3.60;;;;;;;17.85;58.19;101135.09;5039517;28;20634;-82
2022/09/04 07:54:25;;;;;;;4.23;3.60;;;;;;;17.95;58.06;101142.22;5033925;28;20567;-80
2022/09/04 07:57:09;;;;;;;4.43;3.93;;;;;;;18.09;57.88;101143.75;5038232;28;20235;-82
2022/09/04 07:59:50;;;;;;;4.83;3.93;;;;;;;18.21;57.33;101153.47;5032941;28;20286;-82
2022/09/04 08:02:32;;;;;;;4.23;3.30;;;;;;;18.34;56.95;101155.94;5028872;28;20208;-83
2022/09/04 08:05:18;;;;;;;4.33;3.60;;;;;;;18.49;56.99;101168.06;5028578;28;20203;-83
2022/09/04 08:08:26;;;;;;;5.23;3.90;;;;;;;18.62;56.08;101171.44;5031759;28;20717;-81
2022/09/04 08:11:12;;;;;;;5.10;3.73;;;;;;;18.70;55.61;101179.69;5008598;28;20702;-80
2022/09/04 08:14:20;;;;;;;4.53;4.00;;;;;;;18.83;55.46;101183.97;5039497;28;20215;-82
2022/09/04 08:16:58;;;;;;;4.37;3.40;;;;;;;18.92;54.91;101185.84;5034608;28;20232;-83
2022/09/04 08:19:41;;;;;;;4.73;3.47;;;;;;;19.03;54.74;101194.69;5021638;28;20198;-82
2022/09/04 08:22:13;;;;;;;4.33;3.30;;;;;;;19.15;54.69;101198.16;5039909;28;20197;-83
2022/09/04 08:24:56;;;;;;;4.13;3.70;;;;;;;19.30;54.61;101195.88;5038185;28;20193;-81
2022/09/04 08:27:46;;;;;;;6.57;3.63;;;;;;;19.45;54.28;101193.63;5039624;28;20244;-80
2022/09/04 08:30:15;;;;;;;5.20;4.03;;;;;;;19.57;53.09;101192.50;5040319;28;20225;-81
2022/09/04 08:33:05;;;;;;;4.80;3.53;;;;;;;19.68;52.98;101200.50;5032009;28;20416;-81
2022/09/04 08:35:34;;;;;;;8.10;3.67;;;;;;;19.77;52.54;101189.66;5033499;28;20247;-81
2022/09/04 08:38:18;;;;;;;4.77;3.97;;;;;;;19.88;52.61;101191.38;5034655;28;20207;-81
2022/09/04 08:41:34;;;;;;;4.10;3.70;;;;;;;20.03;52.33;101198.06;5039691;28;20259;-81
2022/09/04 08:44:37;;;;;;;4.40;3.70;;;;;;;20.22;52.21;101194.44;4957251;28;20681;-83
2022/09/04 08:47:36;;;;;;;4.67;3.50;;;;;;;20.39;51.72;101195.56;5031437;28;20239;-83
2022/09/04 08:50:26;;;;;;;4.40;3.60;;;;;;;20.50;51.07;101197.22;5030915;28;20242;-82
2022/09/04 08:53:28;;;;;;;4.73;3.60;;;;;;;20.64;51.03;101194.91;5028107;28;20232;-82
2022/09/04 08:56:29;;;;;;;5.13;4.00;;;;;;;20.80;50.87;101197.81;5030955;28;20276;-81
2022/09/04 08:59:28;;;;;;;4.15;3.47;;;;;;;20.99;50.27;101198.72;4999870;28;20220;-82
2022/09/04 09:02:28;;;;;;;4.75;3.50;;;;;;;21.14;49.99;101200.75;5027226;28;20595;-81
2022/09/04 09:05:45;;;;;;;5.25;3.92;;;;;;;21.26;48.85;101198.72;5018317;28;20302;-81
2022/09/04 09:08:37;;;;;;;4.53;3.80;;;;;;;21.36;49.01;101201.38;4938690;28;20583;-82
2022/09/04 09:11:30;;;;;;;5.68;3.80;;;;;;;21.46;48.70;101202.16;5035989;28;20718;-82
2022/09/04 09:14:36;;;;;;;4.22;3.42;;;;;;;21.62;48.41;101206.88;5035978;28;20724;-82
2022/09/04 09:17:12;;;;;;;4.88;3.67;;;;;;;21.77;48.24;101211.59;5032958;28;20234;-83
2022/09/04 09:19:59;;;;;;;4.40;3.22;;;;;;;21.93;47.55;101210.03;5028498;28;20206;-82
2022/09/04 09:23:10;;;;;;;7.18;3.60;;;;;;;22.04;46.92;101207.94;5032490;28;20256;-82
2022/09/04 09:25:48;;;;;;;4.03;3.55;;;;;;;22.15;46.06;101199.56;5030605;28;20223;-83
2022/09/04 09:28:47;;;;;;;3.72;3.42;;;;;;;22.26;46.26;101194.88;5026805;28;20618;-83
2022/09/04 09:31:47;;;;;;;4.82;3.70;;;;;;;22.38;46.16;101189.03;5031818;28;20673;-82
2022/09/04 09:34:53;;;;;;;5.15;4.05;;;;;;;22.52;46.02;101195.72;5033024;28;20226;-83
2022/09/04 09:37:48;;;;;;;5.30;4.15;;;;;;;22.65;45.63;101189.84;5030105;28;20325;-83
2022/09/04 09:40:38;;;;;;;8.23;4.10;;;;;;;22.77;45.46;101189.41;5028604;28;20216;-83
2022/09/04 09:44:06;;;;;;;4.32;3.92;;;;;;;22.92;45.58;101196.97;5033505;28;20206;-82
2022/09/04 09:47:13;;;;;;;5.45;3.65;;;;;;;23.06;44.79;101191.75;4977644;28;20226;-83
2022/09/04 09:50:05;;;;;;;8.35;3.55;;;;;;;23.17;44.66;101194.16;4956777;28;20214;-82
2022/09/04 09:52:45;;;;;;;5.10;3.47;;;;;;;23.27;44.33;101190.47;5022302;28;20309;-83
2022/09/04 09:55:53;;;;;;;5.53;4.03;;;;;;;23.34;44.59;101186.03;5031872;28;20225;-82
2022/09/04 09:58:51;;;;;;;5.03;4.18;;;;;;;23.40;44.16;101190.81;5020966;28;20206;-83
2022/09/04 10:01:34;;;;;;;4.68;3.33;;;;;;;23.42;44.03;101178.75;4988796;28;20211;-82
2022/09/04 10:04:20;;;;;;;3.28;2.97;;;;;;;23.51;44.36;101177.78;5031372;28;20206;-83
2022/09/04 10:07:35;;;;;;;7.18;3.70;;;;;;;23.63;44.00;101185.63;5031003;28;20249;-83
2022/09/04 10:10:48;;;;;;;6.97;3.60;;;;;;;23.69;43.94;101176.78;5031822;28;20228;-83
2022/09/04 10:13:52;;;;;;;4.93;3.58;;;;;;;23.80;43.62;101181.88;5033653;28;20697;-83
2022/09/04 10:17:02;;;;;;;4.78;3.75;;;;;;;23.89;43.20;101176.25;5033606;28;20225;-82
2022/09/04 10:19:52;;;;;;;4.18;3.67;;;;;;;23.93;42.66;101171.34;5031348;28;20201;-84
2022/09/04 10:22:47;;;;;;;4.68;3.47;;;;;;;24.02;43.47;101170.28;5034220;28;20237;-82
2022/09/04 10:25:56;;;;;;;3.60;3.30;;;;;;;24.18;43.37;101172.97;5026690;28;20297;-82
2022/09/04 10:28:46;;;;;;;3.20;2.97;;;;;;;24.27;42.59;101167.56;5023396;28;20218;-83
2022/09/04 10:31:47;;;;;;;4.20;3.25;;;;;;;24.33;42.60;101158.72;5034948;28;20490;-82
2022/09/04 10:34:38;;;;;;;4.22;3.55;;;;;;;24.42;42.10;101163.09;5028620;28;20206;-82
2022/09/04 10:37:20;;;;;;;4.18;3.50;;;;;;;24.52;42.39;101163.78;5030012;28;20234;-81
2022/09/04 10:43:08;;;;;;;5.15;3.42;;;;;;;24.57;41.71;101164.06;5024646;28;20213;-81
2022/09/04 10:45:38;;;;;;;4.00;2.92;;;;;;;24.62;41.64;101164.41;5034794;28;20281;-82
2022/09/04 10:48:31;;;;;;;5.28;3.40;;;;;;;24.70;41.49;101164.38;5034445;28;20210;-82
2022/09/04 10:51:21;;;;;;;4.53;3.00;;;;;;;24.78;41.58;101167.06;5034396;28;20204;-81
2022/09/04 10:54:15;;;;;;;3.75;2.90;;;;;;;24.84;41.30;101169.09;5032874;28;20261;-82
2022/09/04 10:56:57;;;;;;;4.13;3.10;;;;;;;24.91;41.28;101167.31;4999666;28;20234;-81
2022/09/04 10:59:39;;;;;;;4.95;3.10;;;;;;;25.00;41.12;101170.06;5036455;28;20300;-82
2022/09/04 11:02:55;;;;;;;4.10;3.03;;;;;;;25.07;40.86;101163.72;5026082;28;20198;-81
2022/09/04 11:05:40;;;;;;;4.43;3.08;;;;;;;25.17;40.59;101166.22;4972489;28;20260;-81
2022/09/04 11:08:35;;;;;;;6.15;3.00;;;;;;;25.25;40.21;101166.19;5031891;28;20770;-82
2022/09/04 11:11:32;;;;;;;3.42;2.38;;;;;;;25.37;40.23;101164.72;5031227;28;20680;-81
2022/09/04 11:14:33;;;;;;;5.38;3.03;;;;;;;25.41;39.27;101160.63;5012014;28;20210;-82
2022/09/04 11:17:42;;;;;;;3.55;2.90;;;;;;;25.44;39.30;101160.22;5029412;28;20230;-82
2022/09/04 11:20:40;;;;;;;4.05;2.92;;;;;;;25.50;39.32;101151.31;5034108;28;20293;-83
2022/09/04 11:23:52;;;;;;;5.55;2.95;;;;;;;25.55;39.68;101148.91;5030791;28;20210;-81
2022/09/04 11:26:48;;;;;;;4.15;3.13;;;;;;;25.65;39.40;101154.13;5033531;28;20214;-83
2022/09/04 11:29:31;;;;;;;4.70;3.33;;;;;;;25.74;39.25;101150.31;5026949;28;20210;-82
2022/09/04 11:32:13;;;;;;;4.30;2.90;;;;;;;25.79;38.65;101133.41;5036283;28;20205;-82
2022/09/04 11:35:08;;;;;;;3.33;2.60;;;;;;;25.84;38.63;101145.44;5028765;28;20198;-81
2022/09/04 11:38:01;;;;;;;3.38;2.65;;;;;;;25.89;39.04;101147.63;5037683;28;20226;-81
2022/09/04 11:41:06;;;;;;;3.30;2.50;;;;;;;25.92;38.63;101142.66;5030109;28;20198;-81
2022/09/04 11:44:05;;;;;;;3.50;2.40;;;;;;;25.96;38.31;101137.69;5021679;28;20585;-81
2022/09/04 11:47:14;;;;;;;4.18;3.10;;;;;;;25.96;38.05;101140.41;5024495;28;20303;-81
2022/09/04 11:50:10;;;;;;;4.45;2.97;;;;;;;25.93;38.34;101146.22;5030349;28;20661;-81
2022/09/04 11:52:57;;;;;;;3.58;2.97;;;;;;;25.94;38.26;101147.94;5029163;28;20653;-83
2022/09/04 11:55:44;;;;;;;3.13;2.85;;;;;;;25.98;37.97;101146.50;5031802;28;21461;-82
2022/09/04 11:58:35;;;;;;;2.97;2.67;;;;;;;26.04;37.82;101148.50;5031887;28;20366;-82
2022/09/04 12:01:18;;;;;;;4.90;2.88;;;;;;;26.11;38.26;101138.53;5034677;28;20723;-83
2022/09/04 12:04:21;;;;;;;3.53;2.80;;;;;;;26.18;38.14;101142.19;5025722;28;20198;-82
2022/09/04 12:07:01;;;;;;;3.47;3.17;;;;;;;26.25;37.77;101145.03;5038910;28;20226;-81
2022/09/04 12:09:54;;;;;;;2.60;2.40;;;;;;;26.31;37.90;101141.59;5038628;28;20205;-82
2022/09/04 12:12:38;;;;;;;4.53;2.70;;;;;;;26.35;37.82;101139.31;5030270;28;20294;-82
2022/09/04 12:15:27;;;;;;;10.88;2.95;;;;;;;26.39;37.79;101146.09;5034765;28;20198;-82
2022/09/04 12:18:43;;;;;;;3.05;2.67;;;;;;;26.40;37.76;101142.34;5028042;28;20230;-82
2022/09/04 12:21:42;;;;;;;3.33;2.50;;;;;;;26.42;37.41;101140.28;5024205;28;20632;-82
2022/09/04 12:24:54;;;;;;;4.10;2.42;;;;;;;26.43;37.33;101136.50;5021234;28;20797;-82
2022/09/04 12:27:57;;;;;;;3.38;2.60;;;;;;;26.43;37.33;101131.06;5029901;28;20225;-82
2022/09/04 12:30:30;;;;;;;4.55;3.17;;;;;;;26.45;37.65;101134.44;4993056;28;20213;-82
2022/09/04 12:33:23;;;;;;;3.92;2.63;;;;;;;26.48;37.49;101128.59;5030312;28;20194;-82
2022/09/04 12:36:19;;;;;;;4.90;2.60;;;;;;;26.48;37.34;101128.59;5024074;28;20577;-82
2022/09/04 12:39:14;;;;;;;3.10;2.15;;;;;;;26.50;37.77;101137.47;5028010;28;20225;-82
2022/09/04 12:41:54;;;;;;;3.70;2.50;;;;;;;26.47;37.60;101132.38;5026313;28;20264;-82
2022/09/04 12:44:33;;;;;;;2.85;2.65;;;;;;;26.42;37.53;101132.94;5027896;28;20198;-82
2022/09/04 12:47:12;;;;;;;3.50;2.30;;;;;;;26.35;37.45;101133.84;5026090;28;20226;-82